Time;durP1;ratioP1;P1;durP2;ratioP2;P2;SDS_P1;SDS_P2;PMS_P1;PMS_P2;Temp;Humidity;BMP_temperature;BMP_pressure;BME280_temperature;BME280_humidity;BME280_pressure;Samples;Min_cycle;Max_cycle;Signal;HPM_P1;HPM_P2
2023/08/12 00:01:47;;;;;;;11.80;4.68;;;;;;;20.12;100.00;101764.06;5056485;28;20367;-63
2023/08/12 00:04:15;;;;;;;10.77;4.35;;;;;;;20.08;100.00;101770.56;5069826;28;20033;-64
2023/08/12 00:06:41;;;;;;;7.75;4.65;;;;;;;20.08;100.00;101754.53;5069695;28;20562;-64
2023/08/12 00:09:07;;;;;;;11.55;4.63;;;;;;;20.08;100.00;101752.69;5069841;28;20158;-65
2023/08/12 00:11:35;;;;;;;16.33;5.40;;;;;;;20.10;100.00;101747.25;5065085;28;20462;-63
2023/08/12 00:14:00;;;;;;;12.00;5.60;;;;;;;20.07;100.00;101744.75;5061848;28;20032;-64
2023/08/12 00:16:25;;;;;;;14.10;4.90;;;;;;;20.13;100.00;101743.50;5067971;28;20387;-62
2023/08/12 00:18:50;;;;;;;12.80;5.55;;;;;;;20.11;100.00;101732.94;5057625;28;20029;-64
2023/08/12 00:21:16;;;;;;;15.40;5.63;;;;;;;20.13;100.00;101736.34;5063638;28;20021;-64
2023/08/12 00:23:42;;;;;;;14.20;4.97;;;;;;;20.20;100.00;101740.38;5060199;28;20028;-62
2023/08/12 00:26:08;;;;;;;10.75;4.97;;;;;;;20.20;100.00;101740.38;5070029;28;20024;-66
2023/08/12 00:28:34;;;;;;;11.80;4.82;;;;;;;20.22;100.00;101739.44;5059517;28;20545;-63
2023/08/12 00:30:59;;;;;;;13.35;5.13;;;;;;;20.19;100.00;101738.66;5058681;28;20544;-65
2023/08/12 00:33:25;;;;;;;11.48;5.53;;;;;;;20.19;100.00;101732.44;5058563;28;20043;-65
2023/08/12 00:35:50;;;;;;;11.75;5.63;;;;;;;20.14;100.00;101730.03;5069206;28;20107;-60
2023/08/12 00:38:16;;;;;;;10.55;5.30;;;;;;;20.10;100.00;101739.22;5067863;28;20017;-64
2023/08/12 00:40:41;;;;;;;12.57;5.85;;;;;;;20.05;100.00;101722.59;5068648;28;20058;-64
2023/08/12 00:43:06;;;;;;;9.35;4.88;;;;;;;20.01;100.00;101726.38;5068018;28;20111;-61
2023/08/12 00:45:33;;;;;;;13.48;5.45;;;;;;;20.01;100.00;101729.94;5068277;28;20078;-63
2023/08/12 00:47:58;;;;;;;13.35;5.63;;;;;;;20.03;100.00;101716.47;5068259;28;20646;-63
2023/08/12 00:50:23;;;;;;;14.93;5.35;;;;;;;19.99;100.00;101715.78;5056332;28;20039;-62
2023/08/12 00:52:49;;;;;;;10.68;5.07;;;;;;;19.98;100.00;101714.03;5048182;28;20021;-64
2023/08/12 00:55:15;;;;;;;13.25;5.40;;;;;;;19.98;100.00;101707.84;5048543;28;20025;-62
2023/08/12 00:57:40;;;;;;;13.32;5.38;;;;;;;19.97;100.00;101706.97;5047794;28;20131;-62
2023/08/12 01:00:06;;;;;;;11.88;4.93;;;;;;;19.99;100.00;101696.19;5048189;28;20031;-63
2023/08/12 01:02:33;;;;;;;13.65;5.45;;;;;;;20.00;100.00;101695.22;5110466;23;21492;-62
2023/08/12 01:04:58;;;;;;;14.45;5.97;;;;;;;19.99;100.00;101698.84;5024208;28;20043;-65
2023/08/12 01:07:24;;;;;;;10.68;5.00;;;;;;;19.99;100.00;101694.38;5012711;28;20209;-65
2023/08/12 01:09:49;;;;;;;10.77;6.07;;;;;;;20.00;100.00;101700.56;5008761;28;20054;-63
2023/08/12 01:12:27;;;;;;;14.15;6.57;;;;;;;19.99;100.00;101704.22;5008443;28;20038;-65
2023/08/12 01:15:08;;;;;;;11.88;6.20;;;;;;;20.01;100.00;101700.50;5008075;28;20021;-57
2023/08/12 01:17:34;;;;;;;9.30;5.97;;;;;;;20.02;100.00;101693.38;5006913;28;20376;-62
2023/08/12 01:20:00;;;;;;;13.55;6.40;;;;;;;20.05;100.00;101687.81;5018417;28;20029;-63
2023/08/12 01:22:27;;;;;;;20.42;7.22;;;;;;;20.07;100.00;101696.59;5027463;28;20491;-63
2023/08/12 01:24:53;;;;;;;12.50;7.10;;;;;;;20.11;100.00;101682.09;5027228;28;20021;-56
2023/08/12 01:27:19;;;;;;;14.30;6.80;;;;;;;20.13;100.00;101680.19;5028059;28;20518;-63
2023/08/12 01:29:48;;;;;;;19.38;8.93;;;;;;;20.14;100.00;101684.56;5026499;28;20041;-59
2023/08/12 01:32:29;;;;;;;20.63;8.90;;;;;;;20.11;100.00;101674.09;5043504;28;20502;-63
2023/08/12 01:35:05;;;;;;;16.98;8.75;;;;;;;20.08;100.00;101668.91;5023345;28;20033;-63
2023/08/12 01:37:31;;;;;;;13.00;8.20;;;;;;;20.15;100.00;101672.94;5007996;28;20026;-63
2023/08/12 01:39:59;;;;;;;19.05;8.20;;;;;;;20.22;100.00;101665.38;5007570;28;20030;-63
2023/08/12 01:42:25;;;;;;;18.57;9.50;;;;;;;20.23;100.00;101664.44;5030504;28;20033;-59
2023/08/12 01:44:50;;;;;;;18.40;8.02;;;;;;;20.26;100.00;101666.06;5047495;28;20021;-63
2023/08/12 01:47:15;;;;;;;19.77;9.35;;;;;;;20.29;100.00;101650.66;5047832;28;20037;-60
2023/08/12 01:49:41;;;;;;;18.77;9.02;;;;;;;20.28;100.00;101662.31;5047458;28;20039;-64
2023/08/12 01:52:06;;;;;;;20.25;8.80;;;;;;;20.28;100.00;101665.00;5048200;28;20511;-65
2023/08/12 01:54:33;;;;;;;22.27;10.13;;;;;;;20.28;100.00;101659.63;5036057;28;20033;-60
2023/08/12 01:57:05;;;;;;;22.40;10.23;;;;;;;20.29;100.00;101655.16;5018238;28;20030;-64
2023/08/12 01:59:36;;;;;;;18.92;8.95;;;;;;;20.34;100.00;101658.38;5008147;28;20030;-64
2023/08/12 02:02:02;;;;;;;21.30;11.07;;;;;;;20.37;100.00;101655.53;5008027;28;20104;-58
2023/08/12 02:04:28;;;;;;;21.13;10.57;;;;;;;20.36;100.00;101648.47;5007572;28;20217;-64
2023/08/12 02:06:54;;;;;;;27.15;12.23;;;;;;;20.38;100.00;101648.38;5010522;28;20113;-61
2023/08/12 02:09:20;;;;;;;21.50;11.52;;;;;;;20.37;100.00;101647.50;5028651;28;20096;-64
2023/08/12 02:11:45;;;;;;;25.13;11.88;;;;;;;20.33;100.00;101641.50;5026990;28;20494;-62
2023/08/12 02:14:11;;;;;;;26.48;11.85;;;;;;;20.40;100.00;101639.28;5027948;28;20018;-59
2023/08/12 02:16:36;;;;;;;20.73;11.10;;;;;;;20.38;100.00;101640.34;5027814;28;20589;-63
2023/08/12 02:19:02;;;;;;;21.10;12.70;;;;;;;20.43;100.00;101633.72;5027504;28;20025;-63
2023/08/12 02:21:27;;;;;;;26.73;10.65;;;;;;;20.45;100.00;101631.84;5026705;28;20422;-65
2023/08/12 02:23:52;;;;;;;32.70;13.77;;;;;;;20.47;100.00;101628.19;5028031;28;20067;-56
2023/08/12 02:26:18;;;;;;;24.35;12.10;;;;;;;20.43;100.00;101632.88;5044456;28;20021;-63
2023/08/12 02:28:43;;;;;;;22.20;12.13;;;;;;;20.42;100.00;101629.34;5047348;28;20818;-64
2023/08/12 02:31:08;;;;;;;22.75;11.68;;;;;;;20.46;100.00;101632.66;5042920;28;20032;-64
2023/08/12 02:33:34;;;;;;;21.58;12.27;;;;;;;20.48;100.00;101629.91;5042569;28;20498;-59
2023/08/12 02:35:59;;;;;;;30.20;13.40;;;;;;;20.49;100.00;101629.81;5033315;28;20672;-64
2023/08/12 02:38:24;;;;;;;26.15;12.80;;;;;;;20.52;100.00;101616.22;5046978;28;20025;-62
2023/08/12 02:40:50;;;;;;;22.25;12.65;;;;;;;20.50;100.00;101617.28;5046876;28;20104;-61
2023/08/12 02:43:16;;;;;;;23.00;13.38;;;;;;;20.52;100.00;101623.38;5047883;28;20082;-65
2023/08/12 02:45:42;;;;;;;28.02;14.60;;;;;;;20.57;100.00;101623.97;5047832;28;20478;-60
2023/08/12 02:48:09;;;;;;;25.15;13.68;;;;;;;20.57;100.00;101618.59;5049859;28;20120;-64
2023/08/12 02:50:34;;;;;;;28.25;14.77;;;;;;;20.51;100.00;101619.88;5027542;28;20026;-62
2023/08/12 02:53:00;;;;;;;26.00;13.35;;;;;;;20.57;100.00;101610.56;5027229;28;20041;-60
2023/08/12 02:55:25;;;;;;;26.85;14.05;;;;;;;20.54;100.00;101608.09;5027916;28;20100;-63
2023/08/12 02:57:51;;;;;;;24.08;14.27;;;;;;;20.52;100.00;101604.66;5028790;28;20030;-65
2023/08/12 03:00:17;;;;;;;22.02;13.07;;;;;;;20.59;100.00;101603.31;5048207;28;20068;-66
2023/08/12 03:02:43;;;;;;;21.80;12.52;;;;;;;20.61;100.00;101598.72;5047184;28;20052;-64
2023/08/12 03:05:09;;;;;;;26.30;14.15;;;;;;;20.56;100.00;101596.31;5061557;28;20083;-63
2023/08/12 03:07:34;;;;;;;25.85;13.82;;;;;;;20.58;100.00;101598.91;5047260;28;20021;-61
2023/08/12 03:09:59;;;;;;;25.90;14.90;;;;;;;20.57;100.00;101591.84;5047664;28;20025;-64
2023/08/12 03:12:25;;;;;;;27.38;15.07;;;;;;;20.53;100.00;101584.97;5048008;28;20063;-65
2023/08/12 03:14:50;;;;;;;27.00;14.05;;;;;;;20.52;100.00;101577.88;5048504;28;20517;-64
2023/08/12 03:17:15;;;;;;;30.05;14.48;;;;;;;20.49;100.00;101580.75;5044115;28;20422;-60
2023/08/12 03:19:41;;;;;;;26.75;15.18;;;;;;;20.45;100.00;101572.94;5027503;28;20025;-65
2023/08/12 03:22:07;;;;;;;29.48;14.65;;;;;;;20.43;100.00;101569.50;5027867;28;20029;-64
2023/08/12 03:24:32;;;;;;;30.30;15.65;;;;;;;20.40;100.00;101575.03;5027739;28;20129;-57
2023/08/12 03:26:58;;;;;;;25.45;13.43;;;;;;;20.42;100.00;101578.50;5028624;28;20026;-64
2023/08/12 03:29:23;;;;;;;26.42;13.60;;;;;;;20.44;100.00;101559.66;5027610;28;20424;-64
2023/08/12 03:31:48;;;;;;;23.52;14.27;;;;;;;20.38;100.00;101560.88;5027031;28;20074;-63
2023/08/12 03:34:14;;;;;;;21.38;12.82;;;;;;;20.38;100.00;101550.19;5026623;28;20021;-64
2023/08/12 03:36:39;;;;;;;23.33;13.32;;;;;;;20.37;100.00;101556.50;5028074;28;20080;-64
2023/08/12 03:39:04;;;;;;;25.38;13.55;;;;;;;20.35;100.00;101569.16;5027693;28;20018;-57
2023/08/12 03:41:30;;;;;;;29.25;14.27;;;;;;;20.30;100.00;101565.88;5027765;28;20030;-64
2023/08/12 03:43:56;;;;;;;28.13;14.52;;;;;;;20.32;100.00;101566.66;5028901;28;20082;-64
2023/08/12 03:46:21;;;;;;;26.48;15.43;;;;;;;20.30;100.00;101563.22;5047580;28;20032;-59
2023/08/12 03:48:46;;;;;;;28.63;15.50;;;;;;;20.29;100.00;101565.03;5043903;28;20178;-63
2023/08/12 03:51:12;;;;;;;36.60;16.73;;;;;;;20.30;100.00;101558.72;5026530;28;20038;-62
2023/08/12 03:53:37;;;;;;;30.48;17.17;;;;;;;20.28;100.00;101557.09;5027895;28;20546;-66
2023/08/12 03:56:02;;;;;;;29.00;16.67;;;;;;;20.32;100.00;101550.59;5030100;28;20018;-61
2023/08/12 03:58:28;;;;;;;30.13;15.57;;;;;;;20.37;100.00;101559.19;5029551;28;20017;-62
2023/08/12 04:00:53;;;;;;;33.95;16.55;;;;;;;20.36;100.00;101543.22;5030541;28;20026;-64
2023/08/12 04:03:19;;;;;;;31.80;16.23;;;;;;;20.32;100.00;101540.75;5029821;28;20118;-63
2023/08/12 04:05:49;;;;;;;32.33;16.63;;;;;;;20.30;100.00;101533.78;5030067;28;20029;-57
2023/08/12 04:08:14;;;;;;;25.17;13.60;;;;;;;20.31;100.00;101530.13;5030714;28;20105;-61
2023/08/12 04:10:40;;;;;;;34.50;17.70;;;;;;;20.29;100.00;101529.41;5037495;28;20090;-64
2023/08/12 04:13:06;;;;;;;34.30;16.83;;;;;;;20.28;100.00;101519.63;5030943;28;20433;-66
2023/08/12 04:15:31;;;;;;;31.80;15.95;;;;;;;20.31;100.00;101522.09;5022557;28;20118;-63
2023/08/12 04:17:56;;;;;;;26.95;15.40;;;;;;;20.30;100.00;101517.72;5022983;28;20087;-66
2023/08/12 04:20:22;;;;;;;27.83;16.05;;;;;;;20.26;100.00;101502.84;5018915;28;20037;-59
2023/08/12 04:22:48;;;;;;;31.17;15.85;;;;;;;20.28;100.00;101501.78;5029549;28;20025;-63
2023/08/12 04:25:14;;;;;;;26.67;16.63;;;;;;;20.29;100.00;101499.97;5030533;28;20104;-66
2023/08/12 04:27:39;;;;;;;29.15;16.92;;;;;;;20.26;100.00;101492.13;5017578;28;20155;-65
2023/08/12 04:30:05;;;;;;;33.50;17.17;;;;;;;20.25;100.00;101491.25;5030651;28;20025;-62
2023/08/12 04:32:31;;;;;;;29.50;14.35;;;;;;;20.26;100.00;101492.13;5029989;28;20034;-63
2023/08/12 04:34:56;;;;;;;32.38;17.25;;;;;;;20.25;100.00;101490.38;5030392;28;20033;-64
2023/08/12 04:37:23;;;;;;;37.42;19.02;;;;;;;20.25;100.00;101493.94;5030330;28;20014;-58
2023/08/12 04:39:49;;;;;;;26.23;15.55;;;;;;;20.28;100.00;101495.53;5030104;28;20033;-64
2023/08/12 04:42:14;;;;;;;30.33;15.10;;;;;;;20.29;100.00;101490.09;5026247;28;20084;-60
2023/08/12 04:44:39;;;;;;;41.33;19.33;;;;;;;20.33;100.00;101493.44;5026683;28;20037;-65
2023/08/12 04:47:05;;;;;;;36.40;18.20;;;;;;;20.35;100.00;101485.31;5022156;28;20033;-65
2023/08/12 04:49:30;;;;;;;31.83;17.50;;;;;;;20.36;100.00;101492.38;5010029;28;20057;-66
2023/08/12 04:51:55;;;;;;;34.03;17.25;;;;;;;20.36;100.00;101481.66;5029726;28;20033;-62
2023/08/12 04:54:21;;;;;;;27.30;16.25;;;;;;;20.39;100.00;101482.34;5029522;28;20026;-65
2023/08/12 04:56:46;;;;;;;34.00;17.60;;;;;;;20.39;100.00;101477.00;5029587;28;20447;-62
2023/08/12 04:59:11;;;;;;;32.08;17.20;;;;;;;20.43;100.00;101473.16;5028361;28;20037;-66
2023/08/12 05:01:37;;;;;;;26.17;16.70;;;;;;;20.45;100.00;101471.25;5028384;28;20018;-63
2023/08/12 05:04:02;;;;;;;35.75;17.50;;;;;;;20.48;100.00;101474.66;5026855;28;20052;-63
2023/08/12 05:06:27;;;;;;;29.05;17.52;;;;;;;20.47;100.00;101467.59;5027675;28;20021;-61
2023/08/12 05:08:53;;;;;;;28.15;16.98;;;;;;;20.44;100.00;101474.84;5027769;28;20029;-65
2023/08/12 05:11:18;;;;;;;32.08;17.23;;;;;;;20.52;100.00;101470.81;5027805;28;20028;-63
2023/08/12 05:13:43;;;;;;;29.70;16.42;;;;;;;20.49;100.00;101474.56;5027359;28;20096;-65
2023/08/12 05:16:09;;;;;;;36.97;16.60;;;;;;;20.49;100.00;101477.22;5029692;28;20089;-66
2023/08/12 05:18:34;;;;;;;35.20;16.98;;;;;;;20.49;100.00;101474.56;5027626;28;20632;-65
2023/08/12 05:20:59;;;;;;;29.75;15.23;;;;;;;20.53;100.00;101477.91;5022124;28;20034;-63
2023/08/12 05:23:25;;;;;;;24.23;13.45;;;;;;;20.55;100.00;101481.31;5007494;28;20029;-62
2023/08/12 05:25:50;;;;;;;26.58;15.02;;;;;;;20.53;100.00;101477.91;5007710;28;20500;-64
2023/08/12 05:28:16;;;;;;;24.52;14.23;;;;;;;20.54;100.00;101484.97;5023228;28;20622;-65
2023/08/12 05:30:41;;;;;;;33.90;15.35;;;;;;;20.52;100.00;101473.47;5027232;28;20410;-62
2023/08/12 05:33:06;;;;;;;26.65;14.05;;;;;;;20.61;100.00;101485.41;5025777;28;20033;-66
2023/08/12 05:35:35;;;;;;;24.88;12.95;;;;;;;20.59;100.00;101485.53;5011573;28;20018;-65
2023/08/12 05:38:01;;;;;;;21.55;12.63;;;;;;;20.58;100.00;101489.13;5007871;28;20026;-62
2023/08/12 05:40:27;;;;;;;26.20;13.20;;;;;;;20.59;100.00;101490.88;5010805;28;20211;-65
2023/08/12 05:42:52;;;;;;;27.90;13.70;;;;;;;20.59;100.00;101488.19;5025844;28;20068;-60
2023/08/12 05:45:18;;;;;;;25.88;13.93;;;;;;;20.52;100.00;101486.88;5032120;28;20021;-63
2023/08/12 05:47:43;;;;;;;24.75;13.23;;;;;;;20.44;100.00;101490.91;5033568;28;20580;-63
2023/08/12 05:50:09;;;;;;;21.65;13.38;;;;;;;20.43;100.00;101505.25;5025961;28;20088;-65
2023/08/12 05:52:34;;;;;;;18.70;12.30;;;;;;;20.41;100.00;101503.66;5013481;28;20464;-64
2023/08/12 05:55:00;;;;;;;22.15;12.55;;;;;;;20.39;100.00;101487.69;5027096;28;20051;-70
2023/08/12 05:57:25;;;;;;;24.42;12.90;;;;;;;20.41;100.00;101482.25;5027013;28;20025;-69
2023/08/12 05:59:50;;;;;;;21.80;12.23;;;;;;;20.35;100.00;101475.47;5025652;28;20109;-69
2023/08/12 06:02:17;;;;;;;28.75;14.25;;;;;;;20.33;100.00;101472.03;5046789;28;20029;-68
2023/08/12 06:04:42;;;;;;;20.50;12.80;;;;;;;20.36;100.00;101471.84;5044859;28;20622;-71
2023/08/12 06:07:07;;;;;;;20.17;12.45;;;;;;;20.39;100.00;101470.78;5046672;28;20026;-65
2023/08/12 06:09:33;;;;;;;19.70;9.95;;;;;;;20.37;100.00;101468.19;5046518;28;20032;-66
2023/08/12 06:11:58;;;;;;;19.02;11.18;;;;;;;20.34;100.00;101465.72;5034141;28;20036;-69
2023/08/12 06:14:23;;;;;;;18.67;11.23;;;;;;;20.33;100.00;101467.56;5025307;28;20527;-69
2023/08/12 06:16:49;;;;;;;18.13;10.45;;;;;;;20.39;100.00;101468.97;5026030;28;20116;-66
2023/08/12 06:19:14;;;;;;;15.40;9.30;;;;;;;20.41;100.00;101469.69;5023858;28;20080;-67
2023/08/12 06:21:39;;;;;;;15.00;9.43;;;;;;;20.38;100.00;101469.91;5026614;28;20033;-69
2023/08/12 06:24:05;;;;;;;17.00;9.77;;;;;;;20.41;100.00;101469.69;5026753;28;20033;-66
2023/08/12 06:26:30;;;;;;;13.38;8.57;;;;;;;20.42;100.00;101470.56;5027065;28;20025;-68
2023/08/12 06:28:55;;;;;;;12.02;7.68;;;;;;;20.38;100.00;101469.06;5037619;28;20116;-66
2023/08/12 06:31:21;;;;;;;10.45;6.90;;;;;;;20.40;100.00;101473.34;5046421;28;20025;-66
2023/08/12 06:33:46;;;;;;;9.98;6.88;;;;;;;20.39;100.00;101465.41;5045885;28;20013;-67
2023/08/12 06:36:11;;;;;;;8.57;5.95;;;;;;;20.48;100.00;101458.59;5037955;28;20041;-68
2023/08/12 06:38:37;;;;;;;8.35;6.18;;;;;;;20.54;100.00;101452.84;5026985;28;20467;-68
2023/08/12 06:41:02;;;;;;;9.20;6.30;;;;;;;20.56;100.00;101453.59;5027192;28;20049;-68
2023/08/12 06:43:27;;;;;;;7.72;5.55;;;;;;;20.58;100.00;101459.69;5026262;28;20060;-67
2023/08/12 06:45:53;;;;;;;6.28;4.72;;;;;;;20.66;100.00;101451.16;5027527;28;20029;-61
2023/08/12 06:48:18;;;;;;;9.88;5.45;;;;;;;20.71;100.00;101451.72;5026244;28;20382;-62
2023/08/12 06:50:43;;;;;;;6.22;4.78;;;;;;;20.74;100.00;101450.66;5026899;28;20106;-66
2023/08/12 06:53:09;;;;;;;7.07;5.07;;;;;;;20.75;100.00;101455.91;5027396;28;20061;-65
2023/08/12 06:55:34;;;;;;;7.00;5.22;;;;;;;20.69;100.00;101456.31;5026928;28;20025;-62
2023/08/12 06:58:00;;;;;;;7.15;4.85;;;;;;;20.64;100.00;101453.94;5046830;28;20036;-66
2023/08/12 07:00:25;;;;;;;7.05;3.78;;;;;;;20.73;100.00;101457.81;5047126;28;20021;-66
2023/08/12 07:02:51;;;;;;;6.05;4.63;;;;;;;20.71;100.00;101460.59;5046015;28;20601;-66
2023/08/12 07:05:16;;;;;;;5.93;4.40;;;;;;;20.65;100.00;101460.16;5047349;28;20025;-64
2023/08/12 07:07:42;;;;;;;5.28;3.45;;;;;;;20.67;100.00;101467.13;5047379;28;20520;-64
2023/08/12 07:10:07;;;;;;;3.13;2.63;;;;;;;20.77;100.00;101469.19;5044278;28;20037;-68
2023/08/12 07:12:33;;;;;;;4.40;2.40;;;;;;;20.85;100.00;101458.78;5027466;28;20026;-66
2023/08/12 07:14:58;;;;;;;3.30;2.50;;;;;;;20.84;100.00;101465.13;5025823;28;20038;-66
2023/08/12 07:17:24;;;;;;;2.88;2.40;;;;;;;20.81;100.00;101465.31;5025870;28;20036;-62
2023/08/12 07:19:49;;;;;;;2.30;2.08;;;;;;;20.83;100.00;101469.63;5027578;28;20120;-65
2023/08/12 07:22:18;;;;;;;3.50;2.47;;;;;;;20.82;100.00;101470.59;5027016;28;20029;-66
2023/08/12 07:24:43;;;;;;;2.17;1.95;;;;;;;20.87;100.00;101469.41;5034526;28;20033;-66
2023/08/12 07:27:08;;;;;;;2.85;1.88;;;;;;;20.90;100.00;101466.56;5047863;28;20032;-65
2023/08/12 07:29:34;;;;;;;8.07;2.17;;;;;;;20.58;100.00;101487.34;5050519;28;20532;-65
2023/08/12 07:31:59;;;;;;;5.68;1.90;;;;;;;20.27;100.00;101501.88;5052002;28;20043;-65
2023/08/12 07:34:24;;;;;;;6.70;2.00;;;;;;;19.87;100.00;101503.41;5050775;28;20502;-66
2023/08/12 07:36:50;;;;;;;4.95;1.90;;;;;;;19.69;100.00;101510.81;5051380;28;20501;-63
2023/08/12 07:39:15;;;;;;;7.28;2.20;;;;;;;19.60;100.00;101512.22;5037586;28;20775;-65
2023/08/12 07:41:41;;;;;;;5.68;2.08;;;;;;;19.53;100.00;101494.81;5029832;28;20586;-64
2023/08/12 07:44:06;;;;;;;9.13;2.13;;;;;;;19.52;100.00;101506.47;5030147;28;20415;-62
2023/08/12 07:46:31;;;;;;;7.55;2.30;;;;;;;19.65;100.00;101495.88;5030343;28;20064;-63
2023/08/12 07:48:57;;;;;;;3.78;1.60;;;;;;;19.64;100.00;101492.38;5030118;28;20025;-64
2023/08/12 07:51:22;;;;;;;5.22;2.10;;;;;;;19.66;100.00;101501.13;5030446;28;20049;-60
2023/08/12 07:53:48;;;;;;;6.70;2.08;;;;;;;19.70;100.00;101501.81;5030985;28;20029;-64
2023/08/12 07:56:13;;;;;;;5.57;2.03;;;;;;;19.73;100.00;101506.09;5030025;28;20065;-63
2023/08/12 07:58:38;;;;;;;4.70;1.75;;;;;;;19.70;100.00;101524.06;5028422;28;20165;-64
2023/08/12 08:01:04;;;;;;;6.72;1.70;;;;;;;19.64;100.00;101519.09;5030281;28;20021;-66
2023/08/12 08:03:30;;;;;;;7.47;1.70;;;;;;;19.56;100.00;101527.59;5041130;28;20045;-63
2023/08/12 08:05:56;;;;;;;6.07;2.03;;;;;;;19.45;100.00;101536.25;5025509;28;20498;-64
2023/08/12 08:08:21;;;;;;;7.80;1.95;;;;;;;19.44;100.00;101528.31;5028183;28;20024;-62
2023/08/12 08:10:46;;;;;;;6.47;1.60;;;;;;;19.44;100.00;101528.31;5028073;28;20029;-64
2023/08/12 08:13:12;;;;;;;9.27;2.10;;;;;;;19.37;100.00;101519.84;5028083;28;20039;-62
2023/08/12 08:15:37;;;;;;;6.43;1.88;;;;;;;19.41;100.00;101528.50;5028220;28;20067;-61
2023/08/12 08:18:04;;;;;;;6.63;1.92;;;;;;;19.34;100.00;101528.03;5027716;28;20172;-61
2023/08/12 08:20:29;;;;;;;6.68;1.73;;;;;;;19.39;100.00;101525.09;5025407;28;20017;-60
2023/08/12 08:22:55;;;;;;;6.47;1.90;;;;;;;19.40;100.00;101519.66;5027202;28;20029;-61
2023/08/12 08:25:20;;;;;;;6.13;1.67;;;;;;;19.52;100.00;101506.47;5026909;28;20032;-59
2023/08/12 08:27:46;;;;;;;7.15;1.80;;;;;;;19.61;100.00;101499.72;5026705;28;20029;-59
2023/08/12 08:30:11;;;;;;;7.63;1.70;;;;;;;19.82;100.00;101524.25;5027602;28;20149;-60
2023/08/12 08:32:37;;;;;;;6.72;1.95;;;;;;;19.92;100.00;101533.41;5025569;28;20175;-59
2023/08/12 08:35:02;;;;;;;6.10;1.52;;;;;;;20.12;100.00;101530.47;5026224;28;20049;-59
2023/08/12 08:37:28;;;;;;;4.78;1.60;;;;;;;20.26;100.00;101524.25;5027152;28;20423;-59
2023/08/12 08:39:53;;;;;;;6.93;1.65;;;;;;;20.51;100.00;101525.31;5026380;28;20079;-61
2023/08/12 08:42:20;;;;;;;5.20;1.70;;;;;;;20.84;100.00;101529.41;5026355;28;20108;-59
2023/08/12 08:44:45;;;;;;;7.43;1.80;;;;;;;21.14;100.00;101525.66;5026204;28;20478;-62
2023/08/12 08:47:12;;;;;;;4.03;1.35;;;;;;;21.38;100.00;101510.66;5024205;28;20129;-60
2023/08/12 08:49:38;;;;;;;6.93;1.58;;;;;;;21.44;100.00;101511.09;5025277;28;20514;-61
2023/08/12 08:52:03;;;;;;;5.93;1.88;;;;;;;21.62;100.00;101509.91;5027035;28;20017;-64
2023/08/12 08:54:29;;;;;;;6.63;1.80;;;;;;;21.75;100.00;101504.50;5026903;28;20452;-60
2023/08/12 08:56:54;;;;;;;7.53;2.13;;;;;;;21.83;100.00;101519.13;5029762;28;20131;-63
2023/08/12 08:59:21;;;;;;;7.47;2.15;;;;;;;21.90;100.00;101516.00;5030240;28;20026;-59
2023/08/12 09:01:50;;;;;;;3.75;1.55;;;;;;;22.03;100.00;101507.94;5026029;28;20310;-62
2023/08/12 09:04:16;;;;;;;9.40;1.80;;;;;;;22.09;100.00;101505.66;5025146;28;20486;-61
2023/08/12 09:06:42;;;;;;;9.43;1.90;;;;;;;22.24;100.00;101518.91;5027443;28;20025;-61
2023/08/12 09:09:10;;;;;;;5.10;1.70;;;;;;;22.35;100.00;101507.41;5026964;28;20383;-60
2023/08/12 09:11:38;;;;;;;5.93;1.77;;;;;;;22.38;100.00;101509.00;5024256;28;20079;-63
2023/08/12 09:14:04;;;;;;;6.17;1.90;;;;;;;22.64;100.00;101512.47;5026772;28;20025;-58
2023/08/12 09:16:30;;;;;;;10.32;1.80;;;;;;;22.87;100.00;101527.84;5026401;28;20291;-61
2023/08/12 09:18:56;;;;;;;6.35;1.55;;;;;;;22.94;100.00;101527.22;5024975;28;20025;-62
2023/08/12 09:21:21;;;;;;;7.95;1.70;;;;;;;22.90;100.00;101524.91;5026881;28;20061;-62
2023/08/12 09:23:47;;;;;;;5.60;1.70;;;;;;;23.03;100.00;101525.66;5026212;28;20028;-60
2023/08/12 09:26:14;;;;;;;5.47;1.45;;;;;;;23.21;100.00;101547.59;5025100;28;20056;-57
2023/08/12 09:28:40;;;;;;;5.93;2.05;;;;;;;23.31;100.00;101560.31;5026489;28;20101;-63
2023/08/12 09:31:05;;;;;;;5.38;1.88;;;;;;;23.40;100.00;101529.22;5026603;28;20111;-63
2023/08/12 09:33:30;;;;;;;5.85;2.05;;;;;;;23.17;100.00;101540.75;5025755;28;20068;-62
2023/08/12 09:35:56;;;;;;;11.32;1.90;;;;;;;23.19;100.00;101551.38;5024165;28;20032;-60
2023/08/12 09:38:22;;;;;;;5.95;1.75;;;;;;;23.42;100.00;101556.84;5039222;28;20039;-62
2023/08/12 09:40:47;;;;;;;8.20;2.22;;;;;;;23.56;100.00;101553.94;5030850;28;20529;-62
2023/08/12 09:43:13;;;;;;;5.32;1.90;;;;;;;23.73;100.00;101552.63;5025907;28;20248;-62
2023/08/12 09:45:38;;;;;;;7.45;1.67;;;;;;;23.97;100.00;101551.63;5025064;28;20037;-61
2023/08/12 09:48:04;;;;;;;7.13;1.80;;;;;;;24.35;100.00;101557.59;5022808;28;20045;-61
2023/08/12 09:50:30;;;;;;;11.48;2.03;;;;;;;24.42;100.00;101551.72;5024638;28;20025;-59
2023/08/12 09:52:56;;;;;;;5.88;2.08;;;;;;;24.53;100.00;101545.44;5023982;28;20351;-63
2023/08/12 09:55:23;;;;;;;7.63;2.00;;;;;;;24.55;100.00;101556.94;5024626;28;20021;-61
2023/08/12 09:57:52;;;;;;;3.75;1.63;;;;;;;24.29;100.00;101554.56;5031509;28;20021;-60
2023/08/12 10:00:19;;;;;;;6.85;2.47;;;;;;;24.03;100.00;101563.75;5040873;28;20028;-59
2023/08/12 10:02:45;;;;;;;5.90;1.92;;;;;;;23.72;92.87;101552.72;5026999;28;20103;-60
2023/08/12 10:05:16;;;;;;;5.43;1.98;;;;;;;23.65;95.97;101555.03;5025139;28;20030;-63
2023/08/12 10:07:41;;;;;;;6.88;1.90;;;;;;;23.42;96.42;101560.38;5031323;28;20032;-63
2023/08/12 10:10:07;;;;;;;8.00;1.88;;;;;;;23.42;99.73;101552.31;5024153;28;20387;-61
2023/08/12 10:12:33;;;;;;;8.48;1.98;;;;;;;23.25;100.00;101563.47;5024553;28;20412;-56
2023/08/12 10:15:00;;;;;;;5.80;2.00;;;;;;;22.92;100.00;101545.31;5025694;28;20537;-63
2023/08/12 10:17:25;;;;;;;8.90;2.15;;;;;;;22.87;100.00;101552.00;5007305;28;20025;-63
2023/08/12 10:19:55;;;;;;;5.90;1.70;;;;;;;22.65;100.00;101561.66;5026336;28;20017;-62
2023/08/12 10:22:21;;;;;;;5.60;1.88;;;;;;;22.56;100.00;101555.97;5027766;28;20446;-61
2023/08/12 10:24:47;;;;;;;13.90;2.42;;;;;;;22.70;100.00;101551.44;5022923;28;20087;-62
2023/08/12 10:27:12;;;;;;;9.45;2.08;;;;;;;22.87;100.00;101563.59;5025138;28;20033;-62
2023/08/12 10:29:38;;;;;;;9.05;2.35;;;;;;;22.88;100.00;101556.41;5025083;28;20084;-64
2023/08/12 10:32:03;;;;;;;7.80;1.95;;;;;;;23.15;100.00;101557.97;5025310;28;20022;-62
2023/08/12 10:34:29;;;;;;;7.25;1.70;;;;;;;23.29;100.00;101552.38;5024451;28;20515;-55
2023/08/12 10:36:55;;;;;;;9.15;2.10;;;;;;;23.41;100.00;101561.34;5026159;28;20100;-60
2023/08/12 10:39:28;;;;;;;8.82;2.53;;;;;;;23.70;100.00;101560.06;5025287;28;20040;-59
2023/08/12 10:41:57;;;;;;;7.15;2.10;;;;;;;23.88;100.00;101552.38;5025359;28;20022;-62
2023/08/12 10:44:27;;;;;;;10.00;2.60;;;;;;;23.58;100.00;101556.50;5025727;28;20108;-58
2023/08/12 10:46:53;;;;;;;7.03;1.80;;;;;;;23.70;100.00;101552.84;5024504;28;20013;-57
2023/08/12 10:49:21;;;;;;;7.27;1.83;;;;;;;23.77;100.00;101545.13;5023536;28;20025;-60
2023/08/12 10:51:48;;;;;;;9.35;2.42;;;;;;;23.42;100.00;101535.34;5023802;28;20724;-61
2023/08/12 10:54:15;;;;;;;8.05;2.50;;;;;;;23.72;100.00;101552.72;5025285;28;20033;-61
2023/08/12 10:57:02;;;;;;;5.93;1.90;;;;;;;23.92;100.00;101548.44;5025819;28;20052;-62
2023/08/12 10:59:46;;;;;;;9.35;2.35;;;;;;;23.87;98.58;101549.78;5025423;28;20545;-62
2023/08/12 11:02:28;;;;;;;6.80;2.05;;;;;;;23.93;100.00;101552.84;5026052;28;20324;-63
2023/08/12 11:05:00;;;;;;;9.95;2.35;;;;;;;23.97;97.20;101546.25;5018384;28;20108;-59